world map with KBR marked

KBR - Airport

This information may not be accurate or current and is not valid for navigation or flight planning. No warranty of fitness for any purpose is made or implied.

flag of Kelantanflag of Malaysia

Donate via PayPal

Additional information is available on the NEW Great Circle Mapper

Location
City:  Kota Bharu, Kelantan, Malaysia
Name:Sultan Ismail Petra
ICAO / IATA:WMKC / KBR

Details
Type:Airport (Aerodrome, Airfield)
Use:Public/Civil
Latitude:6°10'01"N (6.166850)
Longitude:102°17'35"E (102.293014)
Datum:WGS 1984
Elevation:16 ft (5 m)
Runways:1
Longest:6982 × 150 ft (2128 × 45.5 m)

Time
Timezone:UTC+8 (DST+10)
Local Time:

Weather
METAR:WMKC  161300Z 10004KT 060V140 9999 FEW020 BKN280 28/25 Q1010
TAF:WMKC  (expired)

Related Locations
Nearby:
Farthest:CHH: 12440 mi / 20021 km
Chachapoyas [Chachapoyas Airport], AMA, PE

Find:

   beyond  
but within

Other Information
Maps:
Sources:

  


 


Great Circle Mapper   Great Circle Mapper
Great Circle Mapper FAQ   Great Circle Mapper FAQ
  Karl's Home Page
KLSē   KLSē Home
   GC on Facebook
Airlines of the World   Airlines of the World
Donate via PayPal


Copyright © 2004-2018, Karl L. Swartz. All rights reserved.
All trademarks mentioned herein belong to their respective owners.

Please see credits for attribution and copyright information.

Karl Swartz <karl@kls2.com>
  Powered by FreeBSD
Valid HTML 4.01!
Labeled with ICRA
hCard Microformat
Geo Microformat